Plainfield, Illinois
Current Conditions -  °F | °C
As of 4:15 PM on Monday 26 Jan 2015 (Local Time) from KLOT Reporting Station
Light Snow Light Snow  
Wind Chill: -8°   Ceiling: 900
Heat Index: -3°   Visibility: 3mi
Dew Point: -5°   Wind: 7mph
Humidity: 90%   Direction: 180°S
Pressure: 29.88"   Gusts: NA
Location:  41.62°N, 88.2°W
Report Text: KLOT 262215Z AUTO 18006KT 3SM -SN BKN009 BKN013 OVC036 M03/M05 A2988 RMK AO2 T10351049
Loading
Personal Weather Stations






























Interactive Weather Map New forecast layout! Learn more

10-Day Weather Forecast

Advertisements
Track Severe Weather on mobile